French Lick, IN

11:30 PM EST on March 02, 2015 (GMT -0500)
Rusk Indiana | Change Station
CLOSE
Current Station
Personal Weather Station
Location: Shoals, IN
Elevation: 669 ft
Nearby Weather Stations
Active Advisory: Winter Storm Watch Active Notice: Public Information Statement

Elev 669 ft 38.55 °N, 86.74 °W | Updated 16 seconds ago

Clear
Clear
25.6 °F
Feels Like 26 °F
N
0.0
Wind Variable Wind from East
Gusts 0.0 mph

Today
High -- | Low -- °F
--% Chance of Precip.
Yesterday
High -- | Low -- °F
Precip. -- in
7:17 AM 6:40 PM
Waxing Gibbous, 94% visible
Pressure 30.28 in
Visibility 10.0 miles
Clouds Clear
Windchill 26 °F
Dew Point 19 °F
Humidity 76%
Rainfall 0.02 in
Snow Depth Not available.
UV 0 out of 12
Pollen 3.90 out of 12
Air Quality Not available.
Flu Activity Not available.
METAR KHNB 030415Z AUTO 10007KT 10SM CLR M02/M08 A3028 RMK AO1

More Conditions Fewer Conditions

Pressure 30.28 in
Visibility 10.0 miles
Clouds Clear
Windchill 26 °F
Dew Point 19 °F
Humidity 76%
Rainfall 0.02 in
Snow Depth Not available.
UV 0 out of 12
Pollen 3.90 out of 12
Air Quality Not available.
Flu Activity Not available.
METAR KHNB 030415Z AUTO 10007KT 10SM CLR M02/M08 A3028 RMK AO1

More Conditions Fewer Conditions

10-Day Weather Forecast

Almanac

Astronomy

Mar. 02, 2015 Rise Set
Actual Time
Civil Twilight
Nautical Twilight
Astronomical Twilight
Moon
Length of Visible Light
Length of Day
Tomorrow will be .
, % of the Moon is Illuminated

Today's Extremes

State Highs State Lows

Community

WunderPhotos

Upload Photos

1,802,064 photos uploaded!

WunderBlogs® & News

Nearby

Air Quality

  Air Quality AQ Index Pollutant
Not available.

Snow Depth

Station Depth Elevation

Earthquake Activity

City Distance Mag. Time & Date
Minimum magnitude displayed is 2.5.

Coastal Water Temperatures

Place Temperature

Nearby Weather Stations

Winter Storm Watch
Statement as of 2:23 PM CST on March 02, 2015

... Winter Storm Watch in effect from Wednesday morning through
Thursday afternoon...

The National Weather Service in Louisville has issued a Winter
Storm Watch... which is in effect from Wednesday morning through
Thursday afternoon.

* Timing: rain changing to snow Wednesday morning. Snow continuing
through Wednesday night or early Thursday morning.

* Main impact: significant snow accumulations possible. This would
result in major travel disruptions Wednesday and Wednesday night

* other impacts: snow rates may be intense... resulting in rapid
accumulations and reduced visibility.

Precautionary/preparedness actions...

Significant winter precipitation may develop... but the exact
timing... location... and intensity are yet undetermined. Stay
tuned for updates.